createdAt,value
2022-11-25T00:01:07.708Z,4.35
2022-11-25T00:03:36.531Z,3.80
2022-11-25T00:06:23.768Z,3.05
2022-11-25T00:08:55.148Z,3.70
2022-11-25T00:11:23.396Z,4.07
2022-11-25T00:13:51.577Z,3.47
2022-11-25T00:16:23.098Z,3.20
2022-11-25T00:18:52.629Z,4.00
2022-11-25T00:21:22.772Z,3.90
2022-11-25T00:23:54.257Z,3.80
2022-11-25T00:26:22.766Z,3.92
2022-11-25T00:28:51.379Z,3.80
2022-11-25T00:31:22.418Z,4.28
2022-11-25T00:33:51.151Z,4.22
2022-11-25T00:36:22.599Z,3.67
2022-11-25T00:38:54.841Z,3.83
2022-11-25T00:41:40.729Z,4.30
2022-11-25T00:44:28.443Z,3.85
2022-11-25T00:46:57.793Z,3.60
2022-11-25T00:49:25.883Z,3.72
2022-11-25T00:51:53.876Z,3.80
2022-11-25T00:54:21.923Z,3.40
2022-11-25T00:56:49.968Z,3.70
2022-11-25T00:59:17.954Z,3.60
2022-11-25T01:01:45.983Z,4.00
2022-11-25T01:04:15.477Z,3.80
2022-11-25T01:06:43.617Z,3.50
2022-11-25T01:09:13.615Z,3.78
2022-11-25T01:11:41.979Z,3.80
2022-11-25T01:14:10.255Z,4.20
2022-11-25T01:16:38.350Z,3.90
2022-11-25T01:19:06.443Z,4.27
2022-11-25T01:21:36.412Z,3.90
2022-11-25T01:24:06.593Z,3.70
2022-11-25T01:26:35.438Z,3.47
2022-11-25T01:29:05.148Z,3.85
2022-11-25T01:31:35.161Z,4.10
2022-11-25T01:34:05.281Z,3.60
2022-11-25T01:36:33.496Z,3.83
2022-11-25T01:39:02.951Z,3.83
2022-11-25T01:41:32.371Z,3.90
2022-11-25T01:44:06.408Z,3.90
2022-11-25T01:46:44.735Z,4.40
2022-11-25T01:49:17.939Z,4.35
2022-11-25T01:51:49.927Z,4.22
2022-11-25T01:54:23.052Z,3.97
2022-11-25T01:56:53.924Z,4.38
2022-11-25T01:59:22.571Z,3.80
2022-11-25T02:01:51.192Z,5.20
2022-11-25T02:04:21.475Z,3.60
2022-11-25T02:06:54.082Z,4.05
2022-11-25T02:09:24.670Z,3.97
2022-11-25T02:11:53.522Z,4.30
2022-11-25T02:14:23.475Z,4.20
2022-11-25T02:16:51.493Z,4.32
2022-11-25T02:19:24.191Z,4.13
2022-11-25T02:21:57.346Z,3.85
2022-11-25T02:24:32.287Z,4.00
2022-11-25T02:27:01.652Z,3.72
2022-11-25T02:29:29.900Z,4.00
2022-11-25T02:31:57.808Z,3.78
2022-11-25T02:34:25.788Z,3.65
2022-11-25T02:36:54.477Z,3.67
2022-11-25T02:39:23.073Z,3.90
2022-11-25T02:41:55.119Z,3.85
2022-11-25T02:44:24.847Z,3.40
2022-11-25T02:46:52.736Z,2.95
2022-11-25T02:49:20.657Z,3.00
2022-11-25T02:51:49.042Z,3.20
2022-11-25T02:54:17.557Z,3.55
2022-11-25T02:56:45.750Z,2.92
2022-11-25T02:59:13.782Z,2.50
2022-11-25T03:01:43.098Z,3.10
2022-11-25T03:04:11.239Z,2.75
2022-11-25T03:06:39.330Z,2.60
2022-11-25T03:09:07.291Z,3.03
2022-11-25T03:11:52.816Z,2.90
2022-11-25T03:14:20.783Z,2.45
2022-11-25T03:16:50.305Z,2.80
2022-11-25T03:19:18.320Z,2.53
2022-11-25T03:21:46.182Z,2.45
2022-11-25T03:24:14.120Z,2.50
2022-11-25T03:26:42.061Z,2.07
2022-11-25T03:29:09.963Z,2.70
2022-11-25T03:31:37.961Z,2.05
2022-11-25T03:34:07.469Z,2.05
2022-11-25T03:36:35.450Z,2.25
2022-11-25T03:39:03.471Z,2.20
2022-11-25T03:41:31.344Z,2.20
2022-11-25T03:43:59.231Z,2.47
2022-11-25T03:46:27.257Z,2.72
2022-11-25T03:48:55.227Z,2.07
2022-11-25T03:51:24.547Z,2.00
2022-11-25T03:53:52.401Z,2.20
2022-11-25T03:56:20.300Z,2.30
2022-11-25T03:58:48.296Z,2.58
2022-11-25T04:01:16.304Z,2.70
2022-11-25T04:03:44.297Z,2.10
2022-11-25T04:06:12.312Z,2.40
2022-11-25T04:08:41.778Z,1.92
2022-11-25T04:11:09.736Z,1.90
2022-11-25T04:13:36.729Z,1.90
2022-11-25T04:16:04.783Z,2.07
2022-11-25T04:18:32.708Z,1.90
2022-11-25T04:21:00.629Z,2.10
2022-11-25T04:23:28.905Z,1.83
2022-11-25T04:25:58.216Z,1.70
2022-11-25T04:28:26.211Z,1.30
2022-11-25T04:30:54.163Z,1.70
2022-11-25T04:33:22.110Z,1.50
2022-11-25T04:35:50.035Z,1.60
2022-11-25T04:38:17.920Z,1.70
2022-11-25T04:40:45.894Z,1.60
2022-11-25T04:43:15.244Z,1.67
2022-11-25T04:46:06.731Z,1.50
2022-11-25T04:48:31.190Z,1.80
2022-11-25T04:50:59.113Z,1.90
2022-11-25T04:53:27.133Z,2.00
2022-11-25T04:55:55.047Z,1.92
2022-11-25T04:58:38.199Z,2.45
2022-11-25T05:01:06.245Z,2.08
2022-11-25T05:03:34.440Z,1.93
2022-11-25T05:06:07.324Z,2.22
2022-11-25T05:08:35.302Z,1.93
2022-11-25T05:11:03.663Z,2.40
2022-11-25T05:13:32.947Z,1.95
2022-11-25T05:16:01.068Z,2.50
2022-11-25T05:18:29.145Z,2.55
2022-11-25T05:21:01.359Z,2.20
2022-11-25T05:23:29.519Z,2.08
2022-11-25T05:26:00.472Z,2.10
2022-11-25T05:28:28.516Z,2.50
2022-11-25T05:30:58.516Z,2.30
2022-11-25T05:33:26.589Z,2.77
2022-11-25T05:35:59.386Z,2.50
2022-11-25T05:38:28.232Z,2.58
2022-11-25T05:41:01.996Z,2.70
2022-11-25T05:43:29.930Z,2.17
2022-11-25T05:45:59.458Z,2.50
2022-11-25T05:48:27.466Z,2.25
2022-11-25T05:50:55.415Z,2.20
2022-11-25T05:53:23.339Z,2.50
2022-11-25T05:55:56.188Z,2.60
2022-11-25T05:58:24.269Z,2.50
2022-11-25T06:00:52.340Z,2.30
2022-11-25T06:03:25.152Z,2.53
2022-11-25T06:05:53.500Z,2.58
2022-11-25T06:08:21.474Z,2.80
2022-11-25T06:10:49.575Z,2.40
2022-11-25T06:13:17.536Z,2.30
2022-11-25T06:15:46.679Z,2.60
2022-11-25T06:18:17.107Z,2.60
2022-11-25T06:20:46.565Z,2.38
2022-11-25T06:23:14.574Z,2.08
2022-11-25T06:25:42.487Z,2.55
2022-11-25T06:28:13.109Z,2.30
2022-11-25T06:30:41.522Z,2.40
2022-11-25T06:33:09.497Z,2.20
2022-11-25T06:35:37.819Z,2.20
2022-11-25T06:38:07.179Z,2.22
2022-11-25T06:40:35.646Z,2.45
2022-11-25T06:43:05.529Z,2.30
2022-11-25T06:45:33.978Z,2.33
2022-11-25T06:48:01.878Z,1.90
2022-11-25T06:50:29.803Z,2.90
2022-11-25T06:52:57.663Z,3.10
2022-11-25T06:55:26.923Z,2.53
2022-11-25T06:58:13.647Z,2.20
2022-11-25T07:00:42.826Z,2.50
2022-11-25T07:03:10.830Z,2.83
2022-11-25T07:05:38.792Z,3.05
2022-11-25T07:08:06.760Z,2.25
2022-11-25T07:10:36.776Z,2.40
2022-11-25T07:13:04.789Z,2.65
2022-11-25T07:15:34.981Z,2.28
2022-11-25T07:18:02.978Z,2.47
2022-11-25T07:20:35.109Z,2.42
2022-11-25T07:23:14.290Z,2.70
2022-11-25T07:25:43.571Z,2.30
2022-11-25T07:28:11.530Z,3.00
2022-11-25T07:31:22.168Z,2.58
2022-11-25T07:33:27.390Z,2.50
2022-11-25T07:35:55.390Z,2.55
2022-11-25T07:38:23.464Z,2.10
2022-11-25T07:40:52.692Z,2.72
2022-11-25T07:43:20.628Z,2.63
2022-11-25T07:45:48.585Z,2.13
2022-11-25T07:48:16.488Z,2.90
2022-11-25T07:50:44.398Z,2.30
2022-11-25T07:53:12.346Z,2.60
2022-11-25T07:55:40.260Z,2.40
2022-11-25T07:58:09.481Z,2.80
2022-11-25T08:00:37.391Z,2.65
2022-11-25T08:03:05.327Z,2.30
2022-11-25T08:05:34.496Z,2.33
2022-11-25T08:08:02.496Z,2.67
2022-11-25T08:10:30.636Z,2.20
2022-11-25T08:12:58.551Z,2.10
2022-11-25T08:15:28.211Z,2.33
2022-11-25T08:17:56.157Z,2.33
2022-11-25T08:20:24.060Z,2.50
2022-11-25T08:22:51.975Z,1.95
2022-11-25T08:25:19.922Z,2.40
2022-11-25T08:27:48.418Z,2.22
2022-11-25T08:30:16.812Z,2.40
2022-11-25T08:32:46.127Z,2.20
2022-11-25T08:35:14.085Z,2.13
2022-11-25T08:37:41.989Z,2.17
2022-11-25T08:40:11.623Z,2.10
2022-11-25T08:42:40.071Z,2.45
2022-11-25T08:45:09.662Z,2.10
2022-11-25T08:47:37.888Z,1.92
2022-11-25T08:50:09.862Z,2.40
2022-11-25T08:52:37.754Z,1.80
2022-11-25T08:55:06.625Z,1.88
2022-11-25T08:57:34.515Z,1.95
2022-11-25T09:00:02.460Z,2.22
2022-11-25T09:02:30.495Z,2.45
2022-11-25T09:04:58.535Z,2.00
2022-11-25T09:07:31.172Z,2.00
2022-11-25T09:10:00.370Z,2.30
2022-11-25T09:12:28.400Z,2.00
2022-11-25T09:14:56.332Z,2.17
2022-11-25T09:17:24.252Z,2.30
2022-11-25T09:19:56.685Z,2.33
2022-11-25T09:22:24.780Z,2.30
2022-11-25T09:24:54.099Z,2.30
2022-11-25T09:27:21.968Z,2.60
2022-11-25T09:29:49.880Z,2.22
2022-11-25T09:32:17.807Z,2.20
2022-11-25T09:34:45.813Z,2.10
2022-11-25T09:37:13.778Z,2.28
2022-11-25T09:39:42.038Z,2.50
2022-11-25T09:42:44.679Z,2.40
2022-11-25T09:45:36.792Z,2.22
2022-11-25T09:48:18.536Z,2.58
2022-11-25T09:50:59.121Z,2.60
2022-11-25T09:53:39.185Z,2.33
2022-11-25T09:56:15.712Z,2.40
2022-11-25T09:58:49.408Z,2.30
2022-11-25T10:01:22.366Z,2.40
2022-11-25T10:03:54.654Z,2.78
2022-11-25T10:06:25.788Z,2.60
2022-11-25T10:08:57.442Z,2.13
2022-11-25T10:11:36.004Z,2.38
2022-11-25T10:14:13.774Z,2.30
2022-11-25T10:16:51.770Z,2.30
2022-11-25T10:19:27.611Z,2.20
2022-11-25T10:21:55.466Z,2.58
2022-11-25T10:24:23.488Z,2.30
2022-11-25T10:26:58.552Z,2.20
2022-11-25T10:29:30.395Z,2.50
2022-11-25T10:32:11.758Z,2.60
2022-11-25T10:34:43.199Z,2.60
2022-11-25T10:37:18.213Z,2.20
2022-11-25T10:39:46.142Z,2.57
2022-11-25T10:42:23.036Z,2.42
2022-11-25T10:44:52.457Z,2.17
2022-11-25T10:47:36.567Z,2.58
2022-11-25T10:50:18.320Z,2.25
2022-11-25T10:52:52.700Z,2.80
2022-11-25T10:55:24.177Z,2.20
2022-11-25T10:57:52.188Z,2.70
2022-11-25T11:00:31.672Z,2.40
2022-11-25T11:03:01.131Z,2.93
2022-11-25T11:05:31.276Z,2.70
2022-11-25T11:08:20.917Z,2.90
2022-11-25T11:11:09.036Z,2.67
2022-11-25T11:13:36.990Z,3.40
2022-11-25T11:16:21.692Z,2.80
2022-11-25T11:18:51.021Z,2.47
2022-11-25T11:21:25.309Z,3.30
2022-11-25T11:23:55.739Z,2.63
2022-11-25T11:26:26.330Z,2.58
2022-11-25T11:29:09.764Z,2.60
2022-11-25T11:31:47.728Z,2.97
2022-11-25T11:34:42.737Z,3.28
2022-11-25T11:37:23.872Z,3.30
2022-11-25T11:40:04.190Z,2.55
2022-11-25T11:42:43.162Z,2.50
2022-11-25T11:45:23.458Z,2.90
2022-11-25T11:48:04.659Z,2.80
2022-11-25T11:50:35.097Z,2.50
2022-11-25T11:53:11.540Z,2.47
2022-11-25T11:56:26.805Z,3.10
2022-11-25T11:59:14.542Z,3.10
2022-11-25T12:01:54.860Z,2.60
2022-11-25T12:04:29.002Z,2.60
2022-11-25T12:07:03.403Z,2.72
2022-11-25T12:09:34.684Z,2.60
2022-11-25T12:12:06.602Z,3.05
2022-11-25T12:14:41.921Z,2.40
2022-11-25T12:17:18.183Z,3.38
2022-11-25T12:19:55.492Z,2.60
2022-11-25T12:22:27.767Z,2.70
2022-11-25T12:25:04.565Z,2.70
2022-11-25T12:27:37.492Z,2.25
2022-11-25T12:30:08.179Z,3.20
2022-11-25T12:32:48.068Z,2.80
2022-11-25T12:35:23.999Z,2.90
2022-11-25T12:37:57.539Z,3.13
2022-11-25T12:40:31.310Z,2.60
2022-11-25T12:43:12.040Z,2.83
2022-11-25T12:45:42.795Z,3.00
2022-11-25T12:48:13.684Z,2.70
2022-11-25T12:50:56.954Z,2.65
2022-11-25T12:53:34.059Z,3.30
2022-11-25T12:56:05.066Z,2.70
2022-11-25T12:58:50.870Z,2.72
2022-11-25T13:01:56.410Z,3.30
2022-11-25T13:04:58.046Z,2.85
2022-11-25T13:07:42.558Z,2.90
2022-11-25T13:10:41.656Z,3.20
2022-11-25T13:13:23.311Z,3.50
2022-11-25T13:15:55.189Z,3.28
2022-11-25T13:18:27.996Z,3.20
2022-11-25T13:20:56.737Z,3.10
2022-11-25T13:23:33.253Z,3.60
2022-11-25T13:26:38.642Z,2.90
2022-11-25T13:29:54.549Z,2.90
2022-11-25T13:32:43.052Z,3.00
2022-11-25T13:35:39.282Z,2.92
2022-11-25T13:38:38.005Z,3.25
2022-11-25T13:41:23.993Z,3.10
2022-11-25T13:44:01.999Z,3.53
2022-11-25T13:46:38.475Z,3.03
2022-11-25T13:49:07.654Z,3.40
2022-11-25T13:51:35.667Z,3.08
2022-11-25T13:54:07.701Z,3.67
2022-11-25T13:56:37.880Z,3.53
2022-11-25T13:59:37.789Z,3.70
2022-11-25T14:02:35.616Z,3.30
2022-11-25T14:05:14.193Z,3.47
2022-11-25T14:07:51.898Z,3.25
2022-11-25T14:10:44.959Z,3.13
2022-11-25T14:13:34.237Z,3.00
2022-11-25T14:16:13.494Z,3.50
2022-11-25T14:19:35.305Z,4.17
2022-11-25T14:22:06.938Z,3.50
2022-11-25T14:24:39.683Z,3.40
2022-11-25T14:27:17.289Z,3.67
2022-11-25T14:29:50.602Z,3.00
2022-11-25T14:32:22.523Z,3.42
2022-11-25T14:34:55.611Z,2.85
2022-11-25T14:37:29.184Z,3.00
2022-11-25T14:40:00.560Z,2.60
2022-11-25T14:42:36.121Z,2.72
2022-11-25T14:45:04.486Z,2.75
2022-11-25T14:47:37.550Z,2.63
2022-11-25T14:53:07.981Z,2.72
2022-11-25T14:55:37.841Z,2.92
2022-11-25T14:58:07.175Z,2.60
2022-11-25T15:00:35.212Z,2.80
2022-11-25T15:03:04.836Z,3.03
2022-11-25T15:05:35.891Z,2.78
2022-11-25T15:08:11.588Z,3.20
2022-11-25T15:10:45.928Z,2.72
2022-11-25T15:13:27.444Z,2.45
2022-11-25T15:15:56.716Z,2.40
2022-11-25T15:18:26.366Z,2.03
2022-11-25T15:20:59.063Z,2.80
2022-11-25T15:23:31.991Z,2.47
2022-11-25T15:26:01.164Z,2.50
2022-11-25T15:28:35.411Z,2.40
2022-11-25T15:31:08.897Z,2.60
2022-11-25T15:33:38.268Z,2.80
2022-11-25T15:36:09.151Z,2.17
2022-11-25T15:38:42.615Z,2.28
2022-11-25T15:41:21.271Z,1.90
2022-11-25T15:43:54.049Z,2.20
2022-11-25T15:46:23.169Z,2.47
2022-11-25T15:48:54.400Z,2.63
2022-11-25T15:51:36.385Z,3.10
2022-11-25T15:54:08.947Z,2.30
2022-11-25T15:56:41.076Z,2.33
2022-11-25T15:59:42.383Z,2.27
2022-11-25T16:02:40.790Z,2.42
2022-11-25T16:05:34.506Z,2.20
2022-11-25T16:08:21.545Z,2.42
2022-11-25T16:11:01.345Z,2.55
2022-11-25T16:13:35.023Z,2.35
2022-11-25T16:16:28.952Z,2.80
2022-11-25T16:19:12.549Z,2.55
2022-11-25T16:21:47.956Z,2.60
2022-11-25T16:24:37.841Z,3.00
2022-11-25T16:27:07.420Z,2.60
2022-11-25T16:29:38.326Z,2.42
2022-11-25T16:32:14.814Z,3.00
2022-11-25T16:34:44.832Z,3.00
2022-11-25T16:37:13.233Z,2.63
2022-11-25T16:39:41.239Z,2.50
2022-11-25T16:42:15.562Z,2.50
2022-11-25T16:44:49.075Z,2.97
2022-11-25T16:47:17.676Z,2.72
2022-11-25T16:49:47.488Z,2.60
2022-11-25T16:52:16.023Z,3.20
2022-11-25T16:54:44.069Z,3.60
2022-11-25T16:57:18.783Z,2.90
2022-11-25T16:59:48.231Z,2.95
2022-11-25T17:02:19.169Z,3.40
2022-11-25T17:04:49.639Z,2.47
2022-11-25T17:07:35.719Z,3.50
2022-11-25T17:10:04.421Z,3.40
2022-11-25T17:12:34.847Z,3.90
2022-11-25T17:15:04.667Z,3.60
2022-11-25T17:17:33.533Z,3.20
2022-11-25T17:20:02.926Z,3.70
2022-11-25T17:22:36.043Z,3.63
2022-11-25T17:25:07.374Z,3.30
2022-11-25T17:27:35.630Z,3.40
2022-11-25T17:30:06.548Z,3.90
2022-11-25T17:32:35.189Z,3.28
2022-11-25T17:35:04.882Z,3.20
2022-11-25T17:37:32.981Z,2.97
2022-11-25T17:40:12.243Z,3.50
2022-11-25T17:42:41.768Z,3.22
2022-11-25T17:45:14.238Z,3.35
2022-11-25T17:47:42.690Z,3.05
2022-11-25T17:50:20.985Z,3.20
2022-11-25T17:52:49.176Z,3.00
2022-11-25T17:55:19.678Z,3.60
2022-11-25T17:57:48.340Z,3.30
2022-11-25T18:00:18.962Z,3.15
2022-11-25T18:02:47.175Z,3.30
2022-11-25T18:05:16.774Z,3.40
2022-11-25T18:07:46.308Z,3.03
2022-11-25T18:10:15.244Z,2.40
2022-11-25T18:12:44.676Z,2.85
2022-11-25T18:15:17.411Z,3.20
2022-11-25T18:17:45.892Z,2.92
2022-11-25T18:20:18.928Z,3.22
2022-11-25T18:22:50.922Z,3.10
2022-11-25T18:25:22.699Z,3.05
2022-11-25T18:27:54.077Z,3.30
2022-11-25T18:30:25.425Z,3.40
2022-11-25T18:32:53.675Z,3.30
2022-11-25T18:35:23.508Z,3.42
2022-11-25T18:37:53.201Z,3.58
2022-11-25T18:40:21.346Z,3.20
2022-11-25T18:42:53.241Z,3.17
2022-11-25T18:45:24.037Z,3.45
2022-11-25T18:47:51.972Z,3.10
2022-11-25T18:50:22.581Z,3.90
2022-11-25T18:52:52.926Z,5.00
2022-11-25T18:55:23.036Z,5.27
2022-11-25T18:57:52.184Z,5.00
2022-11-25T19:00:38.021Z,5.00
2022-11-25T19:03:07.813Z,4.77
2022-11-25T19:05:35.750Z,4.95
2022-11-25T19:08:05.401Z,4.50
2022-11-25T19:10:37.904Z,4.90
2022-11-25T19:13:09.456Z,5.03
2022-11-25T19:15:37.530Z,4.15
2022-11-25T19:18:07.651Z,4.80
2022-11-25T19:20:35.601Z,4.70
2022-11-25T19:23:16.861Z,4.63
2022-11-25T19:25:45.421Z,4.00
2022-11-25T19:28:14.618Z,4.30
2022-11-25T19:30:43.238Z,4.20
2022-11-25T19:33:17.340Z,4.40
2022-11-25T19:35:45.269Z,3.73
2022-11-25T19:38:20.541Z,3.70
2022-11-25T19:40:49.206Z,4.20
2022-11-25T19:43:17.143Z,4.13
2022-11-25T19:45:45.429Z,4.40
2022-11-25T19:48:16.263Z,4.00
2022-11-25T19:50:45.786Z,4.10
2022-11-25T19:53:19.084Z,4.00
2022-11-25T19:55:48.004Z,4.60
2022-11-25T19:58:16.663Z,4.57
2022-11-25T20:00:47.305Z,4.00
2022-11-25T20:03:20.250Z,5.30
2022-11-25T20:05:48.865Z,4.60
2022-11-25T20:08:22.460Z,4.60
2022-11-25T20:10:50.670Z,4.90
2022-11-25T20:13:18.879Z,4.67
2022-11-25T20:15:47.646Z,4.90
2022-11-25T20:18:18.847Z,5.60
2022-11-25T20:20:48.591Z,4.80
2022-11-25T20:23:25.029Z,4.65
2022-11-25T20:25:52.989Z,4.47
2022-11-25T20:28:22.700Z,5.35
2022-11-25T20:30:51.426Z,5.00
2022-11-25T20:33:24.390Z,5.10
2022-11-25T20:35:56.601Z,4.75
2022-11-25T20:38:29.540Z,5.57
2022-11-25T20:41:00.036Z,5.50
2022-11-25T20:43:30.742Z,5.47
2022-11-25T20:46:00.809Z,5.95
2022-11-25T20:48:30.541Z,4.90
2022-11-25T20:51:01.243Z,5.65
2022-11-25T20:53:32.416Z,5.70
2022-11-25T20:56:00.863Z,5.80
2022-11-25T20:58:31.055Z,5.18
2022-11-25T21:01:00.290Z,5.40
2022-11-25T21:03:28.490Z,5.38
2022-11-25T21:05:58.015Z,5.35
2022-11-25T21:08:30.113Z,5.70
2022-11-25T21:11:00.179Z,5.23
2022-11-25T21:13:30.473Z,5.37
2022-11-25T21:15:58.782Z,4.82
2022-11-25T21:18:26.887Z,5.20
2022-11-25T21:20:57.532Z,5.30
2022-11-25T21:23:29.307Z,4.80
2022-11-25T21:26:04.784Z,4.90
2022-11-25T21:28:33.390Z,4.53
2022-11-25T21:31:01.370Z,5.10
2022-11-25T21:33:29.318Z,4.50
2022-11-25T21:35:57.242Z,5.10
2022-11-25T21:38:27.644Z,4.82
2022-11-25T21:40:58.378Z,4.20
2022-11-25T21:43:32.508Z,4.57
2022-11-25T21:46:01.987Z,4.63
2022-11-25T21:48:31.015Z,4.50
2022-11-25T21:50:59.474Z,4.05
2022-11-25T21:53:27.784Z,4.17
2022-11-25T21:55:56.217Z,4.63
2022-11-25T21:58:26.808Z,4.72
2022-11-25T22:00:57.965Z,4.55
2022-11-25T22:03:27.108Z,4.78
2022-11-25T22:05:55.388Z,5.20
2022-11-25T22:08:24.122Z,4.30
2022-11-25T22:10:53.755Z,4.18
2022-11-25T22:13:23.273Z,4.28
2022-11-25T22:15:53.379Z,4.30
2022-11-25T22:18:27.999Z,4.80
2022-11-25T22:20:56.379Z,4.30
2022-11-25T22:23:24.830Z,4.55
2022-11-25T22:25:53.569Z,4.70
2022-11-25T22:28:22.851Z,4.45
2022-11-25T22:30:51.850Z,4.65
2022-11-25T22:33:20.772Z,4.68
2022-11-25T22:35:50.760Z,4.75
2022-11-25T22:38:19.771Z,4.57
2022-11-25T22:40:49.555Z,4.30
2022-11-25T22:43:19.027Z,3.80
2022-11-25T22:45:47.710Z,4.70
2022-11-25T22:48:17.351Z,4.10
2022-11-25T22:50:46.504Z,4.20
2022-11-25T22:53:18.748Z,4.78
2022-11-25T22:55:47.381Z,4.33
2022-11-25T22:58:16.186Z,4.53
2022-11-25T23:00:45.929Z,4.15
2022-11-25T23:03:17.209Z,4.70
2022-11-25T23:05:45.502Z,5.00
2022-11-25T23:08:15.060Z,3.60
2022-11-25T23:10:44.737Z,4.20
2022-11-25T23:13:14.557Z,4.43
2022-11-25T23:15:43.252Z,4.05
2022-11-25T23:18:13.846Z,4.00
2022-11-25T23:20:42.124Z,3.93
2022-11-25T23:23:14.280Z,4.20
2022-11-25T23:25:42.928Z,4.60
2022-11-25T23:28:12.523Z,4.20
2022-11-25T23:30:41.440Z,3.85
2022-11-25T23:33:15.343Z,4.20
2022-11-25T23:35:43.584Z,3.95
2022-11-25T23:38:16.790Z,3.97
2022-11-25T23:40:45.123Z,3.97
2022-11-25T23:43:15.172Z,4.70
2022-11-25T23:45:46.229Z,4.10
2022-11-25T23:48:14.474Z,3.90
2022-11-25T23:50:42.772Z,3.33
2022-11-25T23:53:14.797Z,4.20
2022-11-25T23:55:43.019Z,4.10
2022-11-25T23:58:15.727Z,3.92
